Latest Coastal Weather Observations for Tewantin

IDQ60701

Issued at 12:12 pm EST Thursday 23 March 2017 (issued every 10 minutes, with the page automatically refreshed every 10 minutes)

About coastal observations | Map of coastal stations | Coastal observations for QLD | Marine services | Other Formats
Station Details ID: 040908 Name: TEWANTIN RSL PARK Lat: -26.39 Lon: 153.04 Height: 6.4 m
Data from the previous 72 hours. | See also: Recent months at Tewantin
Date/Time
EST
Temp
°C
Wind Pressure Rain since
9am
mm
Weather Cloud Vis
km
Sea
Height
m
Swell
Dir  Spd
kts
Gust
kts
hPa Trend Height
m
Period
s
Dir
23/12:00pm 26.2 N 6 9 1015.4 - 0.2 Recent precip. - - - - - -
23/11:30am 26.1 N 4 7 1016.1 - 0.2 - - - - - - -
23/11:00am 25.5 NNE 6 8 1016.3 - 0.0 - - - - - - -
23/10:30am 25.4 NNE 4 6 1016.6 - 0.0 - - - - - - -
23/10:00am 24.9 NNE 3 5 1016.7 - 0.0 - - - - - - -
23/09:30am 24.5 N 5 7 1016.8 - 0.0 - - - - - - -
23/09:00am 24.7 NNE 3 5 1016.7 - 8.6 Recent precip. - - - - - -
23/08:30am 24.6 N 2 5 1016.5 - 8.4 - - - - - - -
23/08:00am 24.3 NE 4 7 1016.2 - 8.4 - - - - - - -
23/07:30am 23.9 NE 5 7 1015.7 - 8.4 - - - - - - -
23/07:00am 23.4 ENE 4 8 1015.5 - 8.4 - - - - - - -
23/06:30am 22.9 N 3 5 1015.3 - 8.0 - - - - - - -
23/06:00am 22.9 S 2 4 1015.0 - 7.8 - - - - - - -
23/05:30am 22.9 CALM 0 0 1014.7 - 7.8 - - - - - - -
23/05:00am 23.0 CALM 0 0 1014.6 - 7.8 - - - - - - -
23/04:30am 22.8 CALM 0 3 1014.3 - 7.8 - - - - - - -
23/04:00am 22.8 SSW 1 5 1013.9 - 7.8 - - - - - - -
23/03:30am 22.9 SSW 3 5 1013.7 - 7.8 - - - - - - -
23/03:00am 22.9 S 3 5 1013.7 - 7.8 Recent precip. - - - - - -
23/02:30am 23.0 SSW 3 4 1013.8 - 7.8 - - - - - - -
23/02:00am 23.1 SSW 3 3 1014.1 - 7.6 - - - - - - -
23/01:30am 23.1 SSW 1 4 1014.3 - 7.6 - - - - - - -
23/01:00am 23.1 SSW 3 5 1014.7 - 7.4 - - - - - - -
23/12:30am 23.2 SW 1 4 1015.0 - 7.0 - - - - - - -
23/12:00am 23.3 CALM 0 1 1015.2 - 5.6 - - - - - - -
 
Date/Time
EST
Temp
°C
Wind Pressure Rain since
9am
mm
Weather Cloud Vis
km
Sea
Height
m
Swell
Dir  Spd
kts
Gust
kts
hPa Trend Height
m
Period
s
Dir
22/11:30pm 23.4 SW 2 3 1015.2 - 5.6 - - - - - - -
22/11:00pm 23.6 WSW 1 3 1015.4 - 5.6 - - - - - - -
22/10:30pm 23.7 CALM 0 0 1015.5 - 5.2 - - - - - - -
22/10:00pm 23.9 CALM 0 0 1015.6 - 5.2 - - - - - - -
22/09:30pm 24.0 SW 2 5 1015.7 - 5.2 - - - - - - -
22/09:00pm 24.2 WNW 1 4 1015.5 - 5.2 - - - - - - -
22/08:30pm 24.4 WNW 2 4 1015.2 - 5.2 - - - - - - -
22/08:00pm 24.6 NNW 3 5 1014.9 - 5.2 - - - - - - -
22/07:30pm 24.8 WNW 3 5 1014.9 - 5.2 - - - - - - -
22/07:00pm 25.1 N 5 7 1014.6 - 5.2 - - - - - - -
22/06:30pm 25.3 N 3 5 1014.3 - 5.2 - - - - - - -
22/06:00pm 25.4 N 5 6 1014.1 - 5.2 - - - - - - -
22/05:30pm 25.7 N 6 9 1013.9 - 5.2 - - - - - - -
22/05:00pm 26.2 NNE 6 10 1013.6 - 5.2 - - - - - - -
22/04:30pm 26.7 NNE 8 11 1013.3 - 5.2 - - - - - - -
22/04:00pm 27.0 NNE 6 8 1013.3 - 5.2 - - - - - - -
22/03:30pm 27.1 NNE 6 9 1013.3 - 5.2 - - - - - - -
22/03:00pm 27.1 NNE 6 10 1013.4 - 5.2 - - - - - - -
22/02:30pm 27.3 NNE 7 12 1013.4 - 5.2 - - - - - - -
22/02:00pm 27.3 NE 4 7 1013.4 - 5.2 - - - - - - -
22/01:30pm 26.6 ENE 5 6 1013.8 - 5.2 - - - - - - -
22/01:00pm 25.8 NE 6 9 1014.3 - 5.2 - - - - - - -
22/12:30pm 26.0 SE 3 4 1014.5 - 5.2 - - - - - - -
22/12:00pm 25.1 SE 2 4 1014.9 - 5.2 Recent precip. - - - - - -
22/11:30am 24.0 NE 6 10 1015.3 - 4.2 - - - - - - -
22/11:00am 26.5 NNE 1 3 1015.2 - 0.0 - - - - - - -
22/10:30am 25.5 NNW 4 8 1015.5 - 0.0 - - - - - - -
22/10:00am 24.9 N 11 17 1015.8 - 0.0 - - - - - - -
22/09:30am 26.8 NNW 4 6 1015.7 - 0.0 - - - - - - -
22/09:00am 26.4 N 5 7 1015.9 - 14.6 - - - - - - -
22/08:30am 26.2 N 7 13 1015.9 - 14.6 - - - - - - -
22/08:00am 26.1 NNE 4 5 1015.8 - 14.6 - - - - - - -
22/07:30am 25.6 NE 4 6 1015.6 - 14.6 - - - - - - -
22/07:00am 25.2 NE 4 8 1015.4 - 14.6 - - - - - - -
22/06:30am 24.9 NE 5 8 1015.1 - 14.6 - - - - - - -
22/06:00am 24.5 NE 4 8 1014.8 - 14.6 - - - - - - -
22/05:30am 24.5 NNE 6 9 1014.7 - 14.6 - - - - - - -
22/05:00am 24.3 NE 6 11 1014.3 - 14.6 - - - - - - -
22/04:30am 23.3 SE 3 5 1014.2 - 14.6 - - - - - - -
22/04:00am 23.2 SSE 3 6 1014.0 - 14.6 - - - - - - -
22/03:30am 23.0 SW 3 4 1014.1 - 6.4 - - - - - - -
22/03:00am 23.0 NW 2 4 1014.0 - 5.4 Recent precip. - - - - - -
22/02:30am 23.0 NW 1 5 1014.1 - 5.4 - - - - - - -
22/02:00am 22.9 NW 4 7 1014.5 - 5.0 - - - - - - -
22/01:30am 23.2 N 7 11 1014.7 - 4.6 - - - - - - -
22/01:00am 23.6 NNE 3 6 1014.9 - 3.8 - - - - - - -
22/12:30am 23.5 N 5 8 1015.0 - 3.4 - - - - - - -
22/12:00am 24.1 NNE 1 4 1015.2 - 3.0 Recent precip. - - - - - -
 
Date/Time
EST
Temp
°C
Wind Pressure Rain since
9am
mm
Weather Cloud Vis
km
Sea
Height
m
Swell
Dir  Spd
kts
Gust
kts
hPa Trend Height
m
Period
s
Dir
21/11:30pm 23.9 E 1 4 1015.2 - 3.0 - - - - - - -
21/11:00pm 24.2 SSW 5 6 1015.2 - 0.2 - - - - - - -
21/10:30pm 24.2 S 4 5 1015.5 - 0.2 - - - - - - -
21/10:00pm 24.3 S 4 6 1015.6 - 0.2 - - - - - - -
21/09:30pm 24.4 SSW 2 4 1015.6 - 0.2 - - - - - - -
21/09:00pm 24.2 ENE 1 4 1015.7 - 0.2 - - - - - - -
21/08:30pm 24.6 CALM 0 0 1015.7 - 0.2 - - - - - - -
21/08:00pm 24.2 - 1 3 1015.4 - 0.2 - - - - - - -
21/07:30pm 24.8 NNE 10 16 1015.2 - 0.0 - - - - - - -
21/07:00pm 25.6 ENE 3 5 1014.6 - 0.0 - - - - - - -
21/06:30pm 25.2 E 5 6 1014.4 - 0.0 - - - - - - -
21/06:00pm 24.9 ESE 5 8 1014.4 - 0.0 - - - - - - -
21/05:30pm 25.8 ENE 9 12 1014.2 - 0.0 - - - - - - -
21/05:00pm 27.0 E 7 10 1013.9 - 0.0 - - - - - - -
21/04:30pm 27.2 ENE 6 8 1014.0 - 0.0 - - - - - - -
21/04:00pm 27.8 ENE 6 9 1014.1 - 0.0 - - - - - - -
21/03:30pm 27.9 E 8 12 1014.2 - 0.0 - - - - - - -
21/03:00pm 28.3 ENE 6 11 1014.4 - 0.0 - - - - - - -
21/02:30pm 28.5 ENE 8 12 1014.5 - 0.0 - - - - - - -
21/02:00pm 28.4 ENE 8 11 1014.5 - 0.0 - - - - - - -
21/01:30pm 28.2 ENE 7 11 1014.7 - 0.0 - - - - - - -
21/01:00pm 28.9 ENE 8 15 1014.9 - 0.0 - - - - - - -
21/12:30pm 28.3 ENE 8 13 1015.3 - 0.0 - - - - - - -
21/12:00pm 28.7 NE 9 13 1015.7 - 0.0 - - - - - - -
21/11:30am 28.5 NE 9 12 1016.0 - 0.0 - - - - - - -
21/11:00am 28.4 NNE 9 14 1016.1 - 0.0 - - - - - - -
21/10:30am 28.8 NE 9 13 1016.2 - 0.0 - - - - - - -
21/10:00am 28.5 NE 9 14 1016.4 - 0.0 - - - - - - -
21/09:30am 28.3 ENE 8 13 1016.4 - 0.0 - - - - - - -
21/09:00am 28.0 E 9 15 1016.3 - 8.2 - - - - - - -
21/08:30am 27.6 ENE 7 13 1016.2 - 8.2 - - - - - - -
21/08:00am 28.0 ENE 8 12 1015.9 - 8.2 - - - - - - -
21/07:30am 27.4 ENE 6 11 1015.6 - 8.2 - - - - - - -
21/07:00am 26.3 ENE 6 10 1015.4 - 8.2 - - - - - - -
21/06:30am 26.2 ENE 7 13 1015.3 - 8.2 - - - - - - -
21/06:00am 25.8 NE 6 9 1015.2 - 8.2 - - - - - - -
21/05:30am 25.8 NE 7 9 1014.8 - 8.2 - - - - - - -
21/05:00am 25.9 NE 7 10 1014.6 - 8.2 - - - - - - -
21/04:30am 26.1 NE 7 12 1014.7 - 8.2 - - - - - - -
21/04:00am 25.8 NE 6 10 1014.3 - 8.2 - - - - - - -
21/03:30am 25.9 NE 6 9 1014.2 - 8.2 - - - - - - -
21/03:00am 25.7 NE 5 9 1014.3 - 8.2 - - - - - - -
21/02:30am 25.4 NE 6 9 1014.4 - 8.2 - - - - - - -
21/02:00am 24.7 NE 4 8 1014.6 - 8.2 - - - - - - -
21/01:30am 24.4 NE 2 4 1014.7 - 8.2 - - - - - - -
21/01:00am 25.5 NNE 8 16 1015.0 - 7.8 - - - - - - -
21/12:30am 24.4 NE 8 13 1015.0 - 7.8 - - - - - - -
21/12:00am 25.9 ENE 6 11 1015.1 - 6.8 - - - - - - -
 
Date/Time
EST
Temp
°C
Wind Pressure Rain since
9am
mm
Weather Cloud Vis
km
Sea
Height
m
Swell
Dir  Spd
kts
Gust
kts
hPa Trend Height
m
Period
s
Dir
20/11:30pm 26.3 NE 7 12 1015.2 - 6.8 - - - - - - -
20/11:00pm 25.9 NE 6 10 1015.5 - 6.8 - - - - - - -
20/10:30pm 25.5 ENE 5 8 1015.5 - 6.8 - - - - - - -
20/10:00pm 25.9 ENE 6 11 1015.6 - 6.8 - - - - - - -
20/09:30pm 25.4 ENE 6 9 1015.7 - 6.8 - - - - - - -
20/09:00pm 25.2 ENE 7 10 1015.7 - 6.8 Recent precip. - - - - - -
20/08:30pm 24.7 ENE 7 12 1015.4 - 6.8 - - - - - - -
20/08:00pm 26.3 ENE 5 7 1015.0 - 5.8 - - - - - - -
20/07:30pm 26.2 ENE 5 8 1014.9 - 5.8 - - - - - - -
20/07:00pm 26.3 ENE 5 9 1014.8 - 5.8 - - - - - - -
20/06:30pm 26.1 NE 5 8 1014.4 - 5.8 - - - - - - -
20/06:00pm 26.3 NE 5 9 1014.1 - 5.8 - - - - - - -
20/05:30pm 26.4 NE 5 9 1014.1 - 5.8 - - - - - - -
20/05:00pm 26.5 NE 6 9 1014.1 - 5.8 - - - - - - -
20/04:30pm 26.4 NNE 6 9 1014.0 - 5.8 - - - - - - -
20/04:00pm 26.0 NNE 6 9 1013.9 - 5.8 - - - - - - -
20/03:30pm 25.6 NNE 5 8 1014.1 - 5.8 - - - - - - -
20/03:00pm 25.0 CALM 0 0 1013.9 - 5.8 Recent precip. - - - - - -
20/02:30pm 24.9 N 3 8 1014.1 - 5.6 - - - - - - -
20/02:00pm 25.8 ENE 5 8 1014.3 - 2.4 - - - - - - -
20/01:30pm 25.7 ENE 6 11 1014.4 - 2.4 - - - - - - -
20/01:00pm 25.6 NE 9 16 1014.9 - 2.4 - - - - - - -
20/12:30pm 25.9 ENE 7 11 1015.1 - 2.4 - - - - - - -

Other Formats:

Comma delimited format used in spreadsheet applications
http://www.bom.gov.au/fwo/IDQ60701/IDQ60701.94570.axf

JavaScript Object Notation format (JSON) in row-major order
http://www.bom.gov.au/fwo/IDQ60701/IDQ60701.94570.json